Mercer, Missouri
Current Conditions -  °F | °C
As of 2:53 AM on Wednesday 22 Oct 2014 (Local Time) from KLWD Reporting Station
Clear Clear  
Wind Chill: 45°   Ceiling: Unl
Heat Index: 48°   Visibility: 10mi
Dew Point: 40°   Wind: 7mph
Humidity: 74%   Direction: 130°SE
Pressure: 30.17"   Gusts: NA
Location:  40.51°N, 93.53°W
Report Text: KLWD 220753Z AUTO 13006KT 10SM CLR 09/04 A3017 RMK AO2 SLP218 T00890044
Loading
Personal Weather Stations






























Interactive Weather Map New forecast layout! Learn more

10-Day Weather Forecast

Advertisements
Track Severe Weather on mobile